sensor_id;sensor_type;location;lat;lon;timestamp;temperature;humidity
39023;DHT22;25908;51.984;5.928;2022-11-11T00:00:48;11.50;99.90
39023;DHT22;25908;51.984;5.928;2022-11-11T00:03:15;11.50;99.90
39023;DHT22;25908;51.984;5.928;2022-11-11T00:05:40;11.50;99.90
39023;DHT22;25908;51.984;5.928;2022-11-11T00:08:06;11.50;99.90
39023;DHT22;25908;51.984;5.928;2022-11-11T00:10:32;11.50;99.90
39023;DHT22;25908;51.984;5.928;2022-11-11T00:12:59;11.50;99.90
39023;DHT22;25908;51.984;5.928;2022-11-11T00:15:25;11.50;99.90
39023;DHT22;25908;51.984;5.928;2022-11-11T00:17:50;11.50;99.90
39023;DHT22;25908;51.984;5.928;2022-11-11T00:20:35;11.40;99.90
39023;DHT22;25908;51.984;5.928;2022-11-11T00:23:22;11.40;99.90
39023;DHT22;25908;51.984;5.928;2022-11-11T00:26:07;11.40;99.90
39023;DHT22;25908;51.984;5.928;2022-11-11T00:28:33;11.40;99.90
39023;DHT22;25908;51.984;5.928;2022-11-11T00:31:10;11.40;99.90
39023;DHT22;25908;51.984;5.928;2022-11-11T00:33:36;11.30;99.90
39023;DHT22;25908;51.984;5.928;2022-11-11T00:36:01;11.30;99.90
39023;DHT22;25908;51.984;5.928;2022-11-11T00:38:27;11.30;99.90
39023;DHT22;25908;51.984;5.928;2022-11-11T00:41:19;11.40;99.90
39023;DHT22;25908;51.984;5.928;2022-11-11T00:43:46;11.40;99.90
39023;DHT22;25908;51.984;5.928;2022-11-11T00:46:14;11.40;99.90
39023;DHT22;25908;51.984;5.928;2022-11-11T00:48:59;11.40;99.90
39023;DHT22;25908;51.984;5.928;2022-11-11T00:51:44;11.40;99.90
39023;DHT22;25908;51.984;5.928;2022-11-11T00:54:10;11.40;99.90
39023;DHT22;25908;51.984;5.928;2022-11-11T00:56:36;11.30;99.90
39023;DHT22;25908;51.984;5.928;2022-11-11T00:59:03;11.30;99.90
39023;DHT22;25908;51.984;5.928;2022-11-11T01:01:29;11.30;99.90
39023;DHT22;25908;51.984;5.928;2022-11-11T01:03:55;11.30;99.90
39023;DHT22;25908;51.984;5.928;2022-11-11T01:06:20;11.20;99.90
39023;DHT22;25908;51.984;5.928;2022-11-11T01:08:46;11.20;99.90
39023;DHT22;25908;51.984;5.928;2022-11-11T01:11:17;11.30;99.90
39023;DHT22;25908;51.984;5.928;2022-11-11T01:13:43;11.30;99.90
39023;DHT22;25908;51.984;5.928;2022-11-11T01:16:23;11.30;99.90
39023;DHT22;25908;51.984;5.928;2022-11-11T01:18:50;11.30;99.90
39023;DHT22;25908;51.984;5.928;2022-11-11T01:21:18;11.30;99.90
39023;DHT22;25908;51.984;5.928;2022-11-11T01:23:45;11.40;99.90
39023;DHT22;25908;51.984;5.928;2022-11-11T01:26:23;11.40;99.90
39023;DHT22;25908;51.984;5.928;2022-11-11T01:28:51;11.40;99.90
39023;DHT22;25908;51.984;5.928;2022-11-11T01:31:18;11.40;99.90
39023;DHT22;25908;51.984;5.928;2022-11-11T01:33:44;11.40;99.90
39023;DHT22;25908;51.984;5.928;2022-11-11T01:36:15;11.40;99.90
39023;DHT22;25908;51.984;5.928;2022-11-11T01:38:42;11.50;99.90
39023;DHT22;25908;51.984;5.928;2022-11-11T01:41:11;11.40;99.90
39023;DHT22;25908;51.984;5.928;2022-11-11T01:43:55;11.40;99.90
39023;DHT22;25908;51.984;5.928;2022-11-11T01:46:59;11.40;99.90
39023;DHT22;25908;51.984;5.928;2022-11-11T01:49:40;11.40;99.90
39023;DHT22;25908;51.984;5.928;2022-11-11T01:52:33;11.50;99.90
39023;DHT22;25908;51.984;5.928;2022-11-11T01:55:07;11.40;99.90
39023;DHT22;25908;51.984;5.928;2022-11-11T02:00:10;11.40;99.90
39023;DHT22;25908;51.984;5.928;2022-11-11T02:02:48;11.40;99.90
39023;DHT22;25908;51.984;5.928;2022-11-11T02:05:17;11.40;99.90
39023;DHT22;25908;51.984;5.928;2022-11-11T02:08:38;11.30;99.90
39023;DHT22;25908;51.984;5.928;2022-11-11T02:11:05;11.40;99.90
39023;DHT22;25908;51.984;5.928;2022-11-11T02:13:32;11.40;99.90
39023;DHT22;25908;51.984;5.928;2022-11-11T02:16:20;11.40;99.90
39023;DHT22;25908;51.984;5.928;2022-11-11T02:18:45;11.30;99.90
39023;DHT22;25908;51.984;5.928;2022-11-11T02:21:15;11.30;99.90
39023;DHT22;25908;51.984;5.928;2022-11-11T02:23:58;11.30;99.90
39023;DHT22;25908;51.984;5.928;2022-11-11T02:26:27;11.40;99.90
39023;DHT22;25908;51.984;5.928;2022-11-11T02:28:54;11.40;99.90
39023;DHT22;25908;51.984;5.928;2022-11-11T02:31:28;11.50;99.90
39023;DHT22;25908;51.984;5.928;2022-11-11T02:33:54;11.40;99.90
39023;DHT22;25908;51.984;5.928;2022-11-11T02:36:20;11.50;99.90
39023;DHT22;25908;51.984;5.928;2022-11-11T02:38:46;11.50;99.90
39023;DHT22;25908;51.984;5.928;2022-11-11T02:41:11;11.50;99.90
39023;DHT22;25908;51.984;5.928;2022-11-11T02:43:56;11.50;99.90
39023;DHT22;25908;51.984;5.928;2022-11-11T02:46:21;11.50;99.90
39023;DHT22;25908;51.984;5.928;2022-11-11T02:48:47;11.60;99.90
39023;DHT22;25908;51.984;5.928;2022-11-11T02:51:12;11.60;99.90
39023;DHT22;25908;51.984;5.928;2022-11-11T02:53:38;11.60;99.90
39023;DHT22;25908;51.984;5.928;2022-11-11T02:56:04;11.60;99.90
39023;DHT22;25908;51.984;5.928;2022-11-11T02:58:30;11.60;99.90
39023;DHT22;25908;51.984;5.928;2022-11-11T03:00:56;11.60;99.90
39023;DHT22;25908;51.984;5.928;2022-11-11T03:03:21;11.60;99.90
39023;DHT22;25908;51.984;5.928;2022-11-11T03:05:47;11.60;99.90
39023;DHT22;25908;51.984;5.928;2022-11-11T03:08:12;11.60;99.90
39023;DHT22;25908;51.984;5.928;2022-11-11T03:10:38;11.60;99.90
39023;DHT22;25908;51.984;5.928;2022-11-11T03:13:03;11.60;99.90
39023;DHT22;25908;51.984;5.928;2022-11-11T03:15:29;11.60;99.90
39023;DHT22;25908;51.984;5.928;2022-11-11T03:17:54;11.60;99.90
39023;DHT22;25908;51.984;5.928;2022-11-11T03:20:20;11.70;99.90
39023;DHT22;25908;51.984;5.928;2022-11-11T03:23:10;11.70;99.90
39023;DHT22;25908;51.984;5.928;2022-11-11T03:25:41;11.70;99.90
39023;DHT22;25908;51.984;5.928;2022-11-11T03:28:09;11.70;99.90
39023;DHT22;25908;51.984;5.928;2022-11-11T03:30:35;11.70;99.90
39023;DHT22;25908;51.984;5.928;2022-11-11T03:33:01;11.70;99.90
39023;DHT22;25908;51.984;5.928;2022-11-11T03:35:27;11.60;99.90
39023;DHT22;25908;51.984;5.928;2022-11-11T03:37:53;11.60;99.90
39023;DHT22;25908;51.984;5.928;2022-11-11T03:40:37;11.60;99.90
39023;DHT22;25908;51.984;5.928;2022-11-11T03:43:03;11.60;99.90
39023;DHT22;25908;51.984;5.928;2022-11-11T03:45:29;11.60;99.90
39023;DHT22;25908;51.984;5.928;2022-11-11T03:47:55;11.60;99.90
39023;DHT22;25908;51.984;5.928;2022-11-11T03:50:21;11.60;99.90
39023;DHT22;25908;51.984;5.928;2022-11-11T03:52:46;11.60;99.90
39023;DHT22;25908;51.984;5.928;2022-11-11T03:55:13;11.60;99.90
39023;DHT22;25908;51.984;5.928;2022-11-11T03:57:43;11.70;99.90
39023;DHT22;25908;51.984;5.928;2022-11-11T04:00:13;11.70;99.90
39023;DHT22;25908;51.984;5.928;2022-11-11T04:02:39;11.70;99.90
39023;DHT22;25908;51.984;5.928;2022-11-11T04:05:23;11.60;99.90
39023;DHT22;25908;51.984;5.928;2022-11-11T04:08:17;11.60;99.90
39023;DHT22;25908;51.984;5.928;2022-11-11T04:11:14;11.60;99.90
39023;DHT22;25908;51.984;5.928;2022-11-11T04:13:44;11.60;99.90
39023;DHT22;25908;51.984;5.928;2022-11-11T04:16:29;11.60;99.90
39023;DHT22;25908;51.984;5.928;2022-11-11T04:18:54;11.60;99.90
39023;DHT22;25908;51.984;5.928;2022-11-11T04:21:38;11.60;99.90
39023;DHT22;25908;51.984;5.928;2022-11-11T04:24:17;11.50;99.90
39023;DHT22;25908;51.984;5.928;2022-11-11T04:27:05;11.60;99.90
39023;DHT22;25908;51.984;5.928;2022-11-11T04:29:31;11.60;99.90
39023;DHT22;25908;51.984;5.928;2022-11-11T04:34:51;11.50;99.90
39023;DHT22;25908;51.984;5.928;2022-11-11T04:37:18;11.50;99.90
39023;DHT22;25908;51.984;5.928;2022-11-11T04:39:44;11.50;99.90
39023;DHT22;25908;51.984;5.928;2022-11-11T04:42:29;11.50;99.90
39023;DHT22;25908;51.984;5.928;2022-11-11T04:44:57;11.50;99.90
39023;DHT22;25908;51.984;5.928;2022-11-11T04:48:02;11.50;99.90
39023;DHT22;25908;51.984;5.928;2022-11-11T04:50:30;11.40;99.90
39023;DHT22;25908;51.984;5.928;2022-11-11T04:52:56;11.40;99.90
39023;DHT22;25908;51.984;5.928;2022-11-11T04:55:22;11.50;99.90
39023;DHT22;25908;51.984;5.928;2022-11-11T04:58:07;11.50;99.90
39023;DHT22;25908;51.984;5.928;2022-11-11T05:00:34;11.40;99.90
39023;DHT22;25908;51.984;5.928;2022-11-11T05:02:59;11.40;99.90
39023;DHT22;25908;51.984;5.928;2022-11-11T05:05:54;11.40;99.90
39023;DHT22;25908;51.984;5.928;2022-11-11T05:08:55;11.50;99.90
39023;DHT22;25908;51.984;5.928;2022-11-11T05:11:31;11.40;99.90
39023;DHT22;25908;51.984;5.928;2022-11-11T05:14:03;11.50;99.90
39023;DHT22;25908;51.984;5.928;2022-11-11T05:16:53;11.60;99.90
39023;DHT22;25908;51.984;5.928;2022-11-11T05:19:37;11.50;99.90
39023;DHT22;25908;51.984;5.928;2022-11-11T05:24:47;11.50;99.90
39023;DHT22;25908;51.984;5.928;2022-11-11T05:27:31;11.50;99.90
39023;DHT22;25908;51.984;5.928;2022-11-11T05:29:57;11.50;99.90
39023;DHT22;25908;51.984;5.928;2022-11-11T05:32:23;11.40;99.90
39023;DHT22;25908;51.984;5.928;2022-11-11T05:34:48;11.50;99.90
39023;DHT22;25908;51.984;5.928;2022-11-11T05:37:14;11.50;99.90
39023;DHT22;25908;51.984;5.928;2022-11-11T05:39:40;11.50;99.90
39023;DHT22;25908;51.984;5.928;2022-11-11T05:42:06;11.50;99.90
39023;DHT22;25908;51.984;5.928;2022-11-11T05:44:32;11.50;99.90
39023;DHT22;25908;51.984;5.928;2022-11-11T05:46:57;11.50;99.90
39023;DHT22;25908;51.984;5.928;2022-11-11T05:49:23;11.60;99.90
39023;DHT22;25908;51.984;5.928;2022-11-11T05:51:50;11.60;99.90
39023;DHT22;25908;51.984;5.928;2022-11-11T05:54:16;11.60;99.90
39023;DHT22;25908;51.984;5.928;2022-11-11T05:56:41;11.60;99.90
39023;DHT22;25908;51.984;5.928;2022-11-11T05:59:08;11.60;99.90
39023;DHT22;25908;51.984;5.928;2022-11-11T06:01:34;11.60;99.90
39023;DHT22;25908;51.984;5.928;2022-11-11T06:04:00;11.60;99.90
39023;DHT22;25908;51.984;5.928;2022-11-11T06:06:26;11.60;99.90
39023;DHT22;25908;51.984;5.928;2022-11-11T06:08:51;11.60;99.90
39023;DHT22;25908;51.984;5.928;2022-11-11T06:11:17;11.50;99.90
39023;DHT22;25908;51.984;5.928;2022-11-11T06:13:43;11.60;99.90
39023;DHT22;25908;51.984;5.928;2022-11-11T06:16:08;11.60;99.90
39023;DHT22;25908;51.984;5.928;2022-11-11T06:18:34;11.60;99.90
39023;DHT22;25908;51.984;5.928;2022-11-11T06:21:00;11.50;99.90
39023;DHT22;25908;51.984;5.928;2022-11-11T06:23:27;11.50;99.90
39023;DHT22;25908;51.984;5.928;2022-11-11T06:25:53;11.50;99.90
39023;DHT22;25908;51.984;5.928;2022-11-11T06:28:41;11.50;99.90
39023;DHT22;25908;51.984;5.928;2022-11-11T06:31:09;11.50;99.90
39023;DHT22;25908;51.984;5.928;2022-11-11T06:33:35;11.60;99.90
39023;DHT22;25908;51.984;5.928;2022-11-11T06:36:02;11.50;99.90
39023;DHT22;25908;51.984;5.928;2022-11-11T06:38:28;11.50;99.90
39023;DHT22;25908;51.984;5.928;2022-11-11T06:40:53;11.50;99.90
39023;DHT22;25908;51.984;5.928;2022-11-11T06:43:19;11.40;99.90
39023;DHT22;25908;51.984;5.928;2022-11-11T06:45:47;11.30;99.90
39023;DHT22;25908;51.984;5.928;2022-11-11T06:48:14;11.30;99.90
39023;DHT22;25908;51.984;5.928;2022-11-11T06:50:39;11.30;99.90
39023;DHT22;25908;51.984;5.928;2022-11-11T06:53:06;11.30;99.90
39023;DHT22;25908;51.984;5.928;2022-11-11T06:55:33;11.30;99.90
39023;DHT22;25908;51.984;5.928;2022-11-11T06:58:06;11.30;99.90
39023;DHT22;25908;51.984;5.928;2022-11-11T07:00:32;11.40;99.90
39023;DHT22;25908;51.984;5.928;2022-11-11T07:02:58;11.40;99.90
39023;DHT22;25908;51.984;5.928;2022-11-11T07:05:24;11.40;99.90
39023;DHT22;25908;51.984;5.928;2022-11-11T07:07:49;11.40;99.90
39023;DHT22;25908;51.984;5.928;2022-11-11T07:10:15;11.40;99.90
39023;DHT22;25908;51.984;5.928;2022-11-11T07:12:42;11.40;99.90
39023;DHT22;25908;51.984;5.928;2022-11-11T07:15:08;11.40;99.90
39023;DHT22;25908;51.984;5.928;2022-11-11T07:17:34;11.30;99.90
39023;DHT22;25908;51.984;5.928;2022-11-11T07:19:59;11.30;99.90
39023;DHT22;25908;51.984;5.928;2022-11-11T07:22:25;11.20;99.90
39023;DHT22;25908;51.984;5.928;2022-11-11T07:24:50;11.20;99.90
39023;DHT22;25908;51.984;5.928;2022-11-11T07:27:16;11.20;99.90
39023;DHT22;25908;51.984;5.928;2022-11-11T07:29:41;11.20;99.90
39023;DHT22;25908;51.984;5.928;2022-11-11T07:32:07;11.20;99.90
39023;DHT22;25908;51.984;5.928;2022-11-11T07:34:33;11.20;99.90
39023;DHT22;25908;51.984;5.928;2022-11-11T07:36:58;11.20;99.90
39023;DHT22;25908;51.984;5.928;2022-11-11T07:39:24;11.10;99.90
39023;DHT22;25908;51.984;5.928;2022-11-11T07:41:49;11.10;99.90
39023;DHT22;25908;51.984;5.928;2022-11-11T07:44:15;11.00;99.90
39023;DHT22;25908;51.984;5.928;2022-11-11T07:46:40;11.00;99.90
39023;DHT22;25908;51.984;5.928;2022-11-11T07:49:06;11.00;99.90
39023;DHT22;25908;51.984;5.928;2022-11-11T07:51:32;10.90;99.90
39023;DHT22;25908;51.984;5.928;2022-11-11T07:53:58;10.90;99.90
39023;DHT22;25908;51.984;5.928;2022-11-11T07:56:23;10.90;99.90
39023;DHT22;25908;51.984;5.928;2022-11-11T07:58:49;10.90;99.90
39023;DHT22;25908;51.984;5.928;2022-11-11T08:01:14;10.80;99.90
39023;DHT22;25908;51.984;5.928;2022-11-11T08:03:40;10.80;99.90
39023;DHT22;25908;51.984;5.928;2022-11-11T08:06:15;10.80;99.90
39023;DHT22;25908;51.984;5.928;2022-11-11T08:08:41;10.80;99.90
39023;DHT22;25908;51.984;5.928;2022-11-11T08:11:07;10.90;99.90
39023;DHT22;25908;51.984;5.928;2022-11-11T08:13:33;10.80;99.90
39023;DHT22;25908;51.984;5.928;2022-11-11T08:16:10;10.80;99.90
39023;DHT22;25908;51.984;5.928;2022-11-11T08:18:35;10.80;99.90
39023;DHT22;25908;51.984;5.928;2022-11-11T08:21:02;10.80;99.90
39023;DHT22;25908;51.984;5.928;2022-11-11T08:23:28;10.80;99.90
39023;DHT22;25908;51.984;5.928;2022-11-11T08:26:05;10.90;99.90
39023;DHT22;25908;51.984;5.928;2022-11-11T08:28:32;10.90;99.90
39023;DHT22;25908;51.984;5.928;2022-11-11T08:31:00;10.90;99.90
39023;DHT22;25908;51.984;5.928;2022-11-11T08:33:26;10.80;99.90
39023;DHT22;25908;51.984;5.928;2022-11-11T08:35:52;10.70;99.90
39023;DHT22;25908;51.984;5.928;2022-11-11T08:38:19;10.70;99.90
39023;DHT22;25908;51.984;5.928;2022-11-11T08:40:45;10.70;99.90
39023;DHT22;25908;51.984;5.928;2022-11-11T08:43:10;10.70;99.90
39023;DHT22;25908;51.984;5.928;2022-11-11T08:45:37;10.70;99.90
39023;DHT22;25908;51.984;5.928;2022-11-11T08:48:06;10.80;99.90
39023;DHT22;25908;51.984;5.928;2022-11-11T08:50:31;10.90;99.90
39023;DHT22;25908;51.984;5.928;2022-11-11T08:52:57;11.00;99.90
39023;DHT22;25908;51.984;5.928;2022-11-11T08:55:23;11.10;99.90
39023;DHT22;25908;51.984;5.928;2022-11-11T08:57:59;11.20;99.90
39023;DHT22;25908;51.984;5.928;2022-11-11T09:00:25;11.20;99.90
39023;DHT22;25908;51.984;5.928;2022-11-11T09:02:51;11.10;99.90
39023;DHT22;25908;51.984;5.928;2022-11-11T09:05:17;11.10;99.90
39023;DHT22;25908;51.984;5.928;2022-11-11T09:07:43;11.20;99.90
39023;DHT22;25908;51.984;5.928;2022-11-11T09:10:08;11.30;99.90
39023;DHT22;25908;51.984;5.928;2022-11-11T09:12:34;11.30;99.90
39023;DHT22;25908;51.984;5.928;2022-11-11T09:14:59;11.50;99.90
39023;DHT22;25908;51.984;5.928;2022-11-11T09:17:26;11.50;99.90
39023;DHT22;25908;51.984;5.928;2022-11-11T09:19:51;11.50;99.90
39023;DHT22;25908;51.984;5.928;2022-11-11T09:22:17;11.60;99.90
39023;DHT22;25908;51.984;5.928;2022-11-11T09:24:42;11.70;99.90
39023;DHT22;25908;51.984;5.928;2022-11-11T09:27:09;11.80;99.90
39023;DHT22;25908;51.984;5.928;2022-11-11T09:29:35;11.90;99.90
39023;DHT22;25908;51.984;5.928;2022-11-11T09:32:01;11.90;99.90
39023;DHT22;25908;51.984;5.928;2022-11-11T09:34:26;11.90;99.90
39023;DHT22;25908;51.984;5.928;2022-11-11T09:36:52;12.00;99.90
39023;DHT22;25908;51.984;5.928;2022-11-11T09:39:17;12.10;99.90
39023;DHT22;25908;51.984;5.928;2022-11-11T09:50:03;12.30;99.10
39023;DHT22;25908;51.984;5.928;2022-11-11T09:52:56;12.30;99.40
39023;DHT22;25908;51.984;5.928;2022-11-11T09:55:32;12.30;99.30
39023;DHT22;25908;51.984;5.928;2022-11-11T09:58:11;12.30;99.50
39023;DHT22;25908;51.984;5.928;2022-11-11T10:00:42;12.40;99.60
39023;DHT22;25908;51.984;5.928;2022-11-11T10:05:39;12.50;99.20
39023;DHT22;25908;51.984;5.928;2022-11-11T10:10:46;12.60;99.00
39023;DHT22;25908;51.984;5.928;2022-11-11T10:13:33;12.70;99.10
39023;DHT22;25908;51.984;5.928;2022-11-11T10:19:32;13.00;98.80
39023;DHT22;25908;51.984;5.928;2022-11-11T10:22:01;13.10;98.60
39023;DHT22;25908;51.984;5.928;2022-11-11T10:24:34;13.20;98.40
39023;DHT22;25908;51.984;5.928;2022-11-11T10:27:11;13.20;98.20
39023;DHT22;25908;51.984;5.928;2022-11-11T10:29:40;13.20;98.10
39023;DHT22;25908;51.984;5.928;2022-11-11T10:32:10;13.30;98.20
39023;DHT22;25908;51.984;5.928;2022-11-11T10:34:36;13.30;97.90
39023;DHT22;25908;51.984;5.928;2022-11-11T10:37:08;13.40;97.80
39023;DHT22;25908;51.984;5.928;2022-11-11T10:40:02;13.40;97.90
39023;DHT22;25908;51.984;5.928;2022-11-11T10:42:29;13.40;97.70
39023;DHT22;25908;51.984;5.928;2022-11-11T10:44:58;13.40;97.50
39023;DHT22;25908;51.984;5.928;2022-11-11T10:48:16;13.40;97.60
39023;DHT22;25908;51.984;5.928;2022-11-11T10:50:50;13.40;97.80
39023;DHT22;25908;51.984;5.928;2022-11-11T10:56:05;13.50;97.80
39023;DHT22;25908;51.984;5.928;2022-11-11T10:58:42;13.50;97.70
39023;DHT22;25908;51.984;5.928;2022-11-11T11:01:13;13.60;97.90
39023;DHT22;25908;51.984;5.928;2022-11-11T11:03:44;13.60;97.80
39023;DHT22;25908;51.984;5.928;2022-11-11T11:06:32;13.60;97.40
39023;DHT22;25908;51.984;5.928;2022-11-11T11:09:36;13.60;97.40
39023;DHT22;25908;51.984;5.928;2022-11-11T11:12:10;13.50;97.60
39023;DHT22;25908;51.984;5.928;2022-11-11T11:14:47;13.50;97.60
39023;DHT22;25908;51.984;5.928;2022-11-11T11:17:24;13.50;97.60
39023;DHT22;25908;51.984;5.928;2022-11-11T11:20:18;13.40;97.90
39023;DHT22;25908;51.984;5.928;2022-11-11T11:22:50;13.40;98.10
39023;DHT22;25908;51.984;5.928;2022-11-11T11:25:19;13.40;97.90
39023;DHT22;25908;51.984;5.928;2022-11-11T11:27:45;13.40;98.10
39023;DHT22;25908;51.984;5.928;2022-11-11T11:30:22;13.40;98.10
39023;DHT22;25908;51.984;5.928;2022-11-11T11:33:02;13.50;98.20
39023;DHT22;25908;51.984;5.928;2022-11-11T11:35:37;13.50;97.80
39023;DHT22;25908;51.984;5.928;2022-11-11T11:38:04;13.50;97.70
39023;DHT22;25908;51.984;5.928;2022-11-11T11:40:50;13.40;97.80
39023;DHT22;25908;51.984;5.928;2022-11-11T11:43:33;13.40;98.00
39023;DHT22;25908;51.984;5.928;2022-11-11T11:46:01;13.40;97.90
39023;DHT22;25908;51.984;5.928;2022-11-11T11:57:02;13.30;98.00
39023;DHT22;25908;51.984;5.928;2022-11-11T11:59:44;13.30;97.90
39023;DHT22;25908;51.984;5.928;2022-11-11T12:07:42;13.20;98.00
39023;DHT22;25908;51.984;5.928;2022-11-11T12:15:37;13.20;98.10
39023;DHT22;25908;51.984;5.928;2022-11-11T12:21:15;13.20;97.90
39023;DHT22;25908;51.984;5.928;2022-11-11T12:26:48;13.20;97.80
39023;DHT22;25908;51.984;5.928;2022-11-11T12:34:48;13.20;97.50
39023;DHT22;25908;51.984;5.928;2022-11-11T12:37:35;13.10;97.70
39023;DHT22;25908;51.984;5.928;2022-11-11T12:43:20;13.00;97.70
39023;DHT22;25908;51.984;5.928;2022-11-11T12:46:28;13.00;97.90
39023;DHT22;25908;51.984;5.928;2022-11-11T12:49:06;13.00;97.50
39023;DHT22;25908;51.984;5.928;2022-11-11T13:00:18;12.90;97.60
39023;DHT22;25908;51.984;5.928;2022-11-11T13:03:06;13.00;97.90
39023;DHT22;25908;51.984;5.928;2022-11-11T13:05:35;13.00;97.90
39023;DHT22;25908;51.984;5.928;2022-11-11T13:16:08;13.10;97.80
39023;DHT22;25908;51.984;5.928;2022-11-11T13:18:41;13.10;97.70
39023;DHT22;25908;51.984;5.928;2022-11-11T13:21:17;13.20;97.80
39023;DHT22;25908;51.984;5.928;2022-11-11T13:23:44;13.20;97.70
39023;DHT22;25908;51.984;5.928;2022-11-11T13:26:24;13.20;97.70
39023;DHT22;25908;51.984;5.928;2022-11-11T13:29:00;13.20;97.60
39023;DHT22;25908;51.984;5.928;2022-11-11T13:31:35;13.20;97.80
39023;DHT22;25908;51.984;5.928;2022-11-11T13:34:04;13.20;97.90
39023;DHT22;25908;51.984;5.928;2022-11-11T13:36:44;13.20;97.90
39023;DHT22;25908;51.984;5.928;2022-11-11T13:39:30;13.20;98.10
39023;DHT22;25908;51.984;5.928;2022-11-11T13:41:57;13.20;97.90
39023;DHT22;25908;51.984;5.928;2022-11-11T13:44:47;13.20;97.80
39023;DHT22;25908;51.984;5.928;2022-11-11T13:47:23;13.20;97.90
39023;DHT22;25908;51.984;5.928;2022-11-11T13:50:04;13.20;98.10
39023;DHT22;25908;51.984;5.928;2022-11-11T13:52:34;13.20;97.90
39023;DHT22;25908;51.984;5.928;2022-11-11T13:55:20;13.20;98.00
39023;DHT22;25908;51.984;5.928;2022-11-11T13:57:50;13.20;98.10
39023;DHT22;25908;51.984;5.928;2022-11-11T14:02:41;13.20;98.10
39023;DHT22;25908;51.984;5.928;2022-11-11T14:05:14;13.30;98.30
39023;DHT22;25908;51.984;5.928;2022-11-11T14:07:46;13.30;98.30
39023;DHT22;25908;51.984;5.928;2022-11-11T14:12:54;13.30;97.90
39023;DHT22;25908;51.984;5.928;2022-11-11T14:15:45;13.30;98.00
39023;DHT22;25908;51.984;5.928;2022-11-11T14:20:47;13.30;97.90
39023;DHT22;25908;51.984;5.928;2022-11-11T14:25:42;13.30;97.70
39023;DHT22;25908;51.984;5.928;2022-11-11T14:28:23;13.30;97.50
39023;DHT22;25908;51.984;5.928;2022-11-11T14:30:51;13.30;97.60
39023;DHT22;25908;51.984;5.928;2022-11-11T14:36:43;13.40;97.80
39023;DHT22;25908;51.984;5.928;2022-11-11T14:39:29;13.40;97.90
39023;DHT22;25908;51.984;5.928;2022-11-11T14:41:57;13.40;98.10
39023;DHT22;25908;51.984;5.928;2022-11-11T14:49:46;13.30;98.00
39023;DHT22;25908;51.984;5.928;2022-11-11T14:57:43;13.40;98.10
39023;DHT22;25908;51.984;5.928;2022-11-11T15:05:54;13.40;98.40
39023;DHT22;25908;51.984;5.928;2022-11-11T15:08:29;13.30;98.50
39023;DHT22;25908;51.984;5.928;2022-11-11T15:24:41;13.10;99.20
39023;DHT22;25908;51.984;5.928;2022-11-11T15:30:15;13.00;99.30
39023;DHT22;25908;51.984;5.928;2022-11-11T15:33:14;12.90;99.40
39023;DHT22;25908;51.984;5.928;2022-11-11T15:36:07;12.90;99.60
39023;DHT22;25908;51.984;5.928;2022-11-11T15:38:35;12.80;99.70
39023;DHT22;25908;51.984;5.928;2022-11-11T15:41:01;12.70;99.80
39023;DHT22;25908;51.984;5.928;2022-11-11T15:43:30;12.70;99.90
39023;DHT22;25908;51.984;5.928;2022-11-11T15:45:59;12.60;99.90
39023;DHT22;25908;51.984;5.928;2022-11-11T15:48:29;12.50;99.90
39023;DHT22;25908;51.984;5.928;2022-11-11T15:50:56;12.50;99.90
39023;DHT22;25908;51.984;5.928;2022-11-11T15:53:24;12.40;99.90
39023;DHT22;25908;51.984;5.928;2022-11-11T15:55:54;12.40;99.90
39023;DHT22;25908;51.984;5.928;2022-11-11T15:58:27;12.30;99.90
39023;DHT22;25908;51.984;5.928;2022-11-11T16:00:53;12.20;99.90
39023;DHT22;25908;51.984;5.928;2022-11-11T16:03:39;12.20;99.90
39023;DHT22;25908;51.984;5.928;2022-11-11T16:06:13;12.10;99.90
39023;DHT22;25908;51.984;5.928;2022-11-11T16:08:42;12.10;99.90
39023;DHT22;25908;51.984;5.928;2022-11-11T16:11:11;12.00;99.90
39023;DHT22;25908;51.984;5.928;2022-11-11T16:13:41;12.00;99.90
39023;DHT22;25908;51.984;5.928;2022-11-11T16:21:19;11.80;99.90
39023;DHT22;25908;51.984;5.928;2022-11-11T16:23:46;11.80;99.90
39023;DHT22;25908;51.984;5.928;2022-11-11T16:26:12;11.70;99.90
39023;DHT22;25908;51.984;5.928;2022-11-11T16:28:44;11.70;99.90
39023;DHT22;25908;51.984;5.928;2022-11-11T16:31:21;11.60;99.90
39023;DHT22;25908;51.984;5.928;2022-11-11T16:33:47;11.60;99.90
39023;DHT22;25908;51.984;5.928;2022-11-11T16:36:12;11.50;99.90
39023;DHT22;25908;51.984;5.928;2022-11-11T16:38:38;11.50;99.90
39023;DHT22;25908;51.984;5.928;2022-11-11T16:41:25;11.50;99.90
39023;DHT22;25908;51.984;5.928;2022-11-11T16:43:53;11.40;99.90
39023;DHT22;25908;51.984;5.928;2022-11-11T16:49:36;11.30;99.90
39023;DHT22;25908;51.984;5.928;2022-11-11T16:52:14;11.30;99.90
39023;DHT22;25908;51.984;5.928;2022-11-11T16:54:50;11.20;99.90
39023;DHT22;25908;51.984;5.928;2022-11-11T16:57:18;11.20;99.90
39023;DHT22;25908;51.984;5.928;2022-11-11T16:59:48;11.10;99.90
39023;DHT22;25908;51.984;5.928;2022-11-11T17:02:20;11.10;99.90
39023;DHT22;25908;51.984;5.928;2022-11-11T17:07:31;11.00;99.90
39023;DHT22;25908;51.984;5.928;2022-11-11T17:10:17;11.00;99.90
39023;DHT22;25908;51.984;5.928;2022-11-11T17:12:43;11.00;99.90
39023;DHT22;25908;51.984;5.928;2022-11-11T17:15:12;10.90;99.90
39023;DHT22;25908;51.984;5.928;2022-11-11T17:17:39;10.90;99.90
39023;DHT22;25908;51.984;5.928;2022-11-11T17:20:13;10.90;99.90
39023;DHT22;25908;51.984;5.928;2022-11-11T17:22:51;10.80;99.90
39023;DHT22;25908;51.984;5.928;2022-11-11T17:25:18;10.80;99.90
39023;DHT22;25908;51.984;5.928;2022-11-11T17:27:44;10.80;99.90
39023;DHT22;25908;51.984;5.928;2022-11-11T17:30:11;10.70;99.90
39023;DHT22;25908;51.984;5.928;2022-11-11T17:32:37;10.70;99.90
39023;DHT22;25908;51.984;5.928;2022-11-11T17:35:03;10.70;99.90
39023;DHT22;25908;51.984;5.928;2022-11-11T17:37:32;10.60;99.90
39023;DHT22;25908;51.984;5.928;2022-11-11T17:39:58;10.60;99.90
39023;DHT22;25908;51.984;5.928;2022-11-11T17:42:24;10.60;99.90
39023;DHT22;25908;51.984;5.928;2022-11-11T17:44:49;10.60;99.90
39023;DHT22;25908;51.984;5.928;2022-11-11T17:47:15;10.50;99.90
39023;DHT22;25908;51.984;5.928;2022-11-11T17:49:40;10.50;99.90
39023;DHT22;25908;51.984;5.928;2022-11-11T17:52:06;10.50;99.90
39023;DHT22;25908;51.984;5.928;2022-11-11T17:54:31;10.40;99.90
39023;DHT22;25908;51.984;5.928;2022-11-11T17:56:57;10.40;99.90
39023;DHT22;25908;51.984;5.928;2022-11-11T17:59:22;10.30;99.90
39023;DHT22;25908;51.984;5.928;2022-11-11T18:01:50;10.30;99.90
39023;DHT22;25908;51.984;5.928;2022-11-11T18:04:15;10.30;99.90
39023;DHT22;25908;51.984;5.928;2022-11-11T18:06:41;10.30;99.90
39023;DHT22;25908;51.984;5.928;2022-11-11T18:09:06;10.20;99.90
39023;DHT22;25908;51.984;5.928;2022-11-11T18:11:34;10.20;99.90